createdAt,value
2018-08-03T00:00:46.941Z,24.50
2018-08-03T00:03:15.397Z,24.50
2018-08-03T00:05:43.867Z,24.40
2018-08-03T00:08:12.292Z,24.40
2018-08-03T00:10:40.831Z,24.40
2018-08-03T00:13:09.435Z,24.40
2018-08-03T00:15:37.881Z,24.30
2018-08-03T00:18:06.440Z,24.30
2018-08-03T00:20:34.898Z,24.10
2018-08-03T00:23:03.335Z,24.20
2018-08-03T00:25:31.796Z,24.10
2018-08-03T00:28:00.286Z,24.10
2018-08-03T00:30:28.729Z,24.10
2018-08-03T00:32:57.209Z,24.00
2018-08-03T00:35:25.649Z,23.90
2018-08-03T00:37:54.067Z,23.80
2018-08-03T00:40:22.548Z,23.80
2018-08-03T00:42:50.978Z,23.80
2018-08-03T00:45:19.411Z,23.80
2018-08-03T00:47:47.812Z,23.80
2018-08-03T00:50:16.346Z,23.80
2018-08-03T00:52:44.772Z,23.70
2018-08-03T00:55:13.392Z,23.70
2018-08-03T00:57:41.836Z,23.80
2018-08-03T01:00:10.312Z,23.70
2018-08-03T01:02:38.821Z,23.70
2018-08-03T01:05:07.282Z,23.60
2018-08-03T01:07:35.732Z,23.50
2018-08-03T01:10:04.820Z,23.50
2018-08-03T01:12:33.215Z,23.40
2018-08-03T01:15:01.617Z,23.40
2018-08-03T01:17:30.065Z,23.30
2018-08-03T01:19:58.497Z,23.30
2018-08-03T01:22:26.914Z,23.30
2018-08-03T01:24:55.325Z,23.20
2018-08-03T01:27:23.716Z,23.30
2018-08-03T01:29:52.127Z,23.20
2018-08-03T01:32:20.532Z,23.10
2018-08-03T01:34:48.932Z,23.10
2018-08-03T01:37:17.379Z,23.10
2018-08-03T01:39:45.820Z,23.10
2018-08-03T01:42:14.228Z,23.00
2018-08-03T01:44:42.736Z,23.00
2018-08-03T01:47:11.179Z,22.90
2018-08-03T01:49:39.604Z,22.80
2018-08-03T01:54:36.224Z,22.70
2018-08-03T01:57:04.648Z,22.60
2018-08-03T01:59:33.061Z,22.60
2018-08-03T02:02:01.895Z,22.50
2018-08-03T02:04:30.308Z,22.50
2018-08-03T02:06:58.746Z,22.50
2018-08-03T02:09:27.180Z,22.40
2018-08-03T02:11:57.816Z,22.40
2018-08-03T02:14:26.213Z,22.40
2018-08-03T02:16:54.659Z,22.30
2018-08-03T02:19:23.089Z,22.30
2018-08-03T02:21:51.487Z,22.30
2018-08-03T02:24:19.923Z,22.20
2018-08-03T02:26:48.363Z,22.20
2018-08-03T02:29:16.773Z,22.20
2018-08-03T02:31:45.199Z,22.20
2018-08-03T02:34:13.623Z,22.20
2018-08-03T02:36:42.033Z,22.20
2018-08-03T02:39:11.853Z,22.10
2018-08-03T02:41:40.340Z,22.10
2018-08-03T02:44:09.280Z,22.10
2018-08-03T02:46:37.763Z,22.10
2018-08-03T02:49:06.497Z,22.10
2018-08-03T02:51:34.933Z,22.00
2018-08-03T02:54:03.355Z,22.00
2018-08-03T02:56:31.791Z,22.00
2018-08-03T02:59:00.231Z,22.00
2018-08-03T03:01:28.671Z,22.00
2018-08-03T03:03:57.094Z,21.90
2018-08-03T03:06:25.565Z,21.90
2018-08-03T03:08:54.041Z,21.80
2018-08-03T03:11:22.460Z,21.70
2018-08-03T03:13:50.892Z,21.70
2018-08-03T03:16:19.301Z,21.70
2018-08-03T03:18:47.704Z,21.60
2018-08-03T03:21:16.126Z,21.60
2018-08-03T03:23:44.527Z,21.50
2018-08-03T03:26:12.943Z,21.50
2018-08-03T03:28:41.324Z,21.50
2018-08-03T03:33:37.884Z,21.50
2018-08-03T03:36:06.414Z,21.50
2018-08-03T03:38:34.904Z,21.50
2018-08-03T03:41:03.432Z,21.40
2018-08-03T03:43:31.879Z,21.40
2018-08-03T03:46:00.288Z,21.40
2018-08-03T03:48:28.713Z,21.30
2018-08-03T03:50:57.146Z,21.30
2018-08-03T03:53:25.480Z,21.30
2018-08-03T03:55:53.985Z,21.30
2018-08-03T03:58:22.391Z,21.20
2018-08-03T04:00:50.884Z,21.30
2018-08-03T04:03:19.315Z,21.30
2018-08-03T04:05:47.736Z,21.30
2018-08-03T04:08:16.156Z,21.30
2018-08-03T04:10:44.564Z,21.30
2018-08-03T04:13:12.965Z,21.30
2018-08-03T04:15:41.448Z,21.30
2018-08-03T04:18:13.768Z,21.30
2018-08-03T04:20:42.213Z,21.30
2018-08-03T04:23:10.656Z,21.30
2018-08-03T04:25:39.208Z,21.30
2018-08-03T04:28:07.606Z,21.30
2018-08-03T04:30:36.196Z,21.30
2018-08-03T04:33:05.000Z,21.30
2018-08-03T04:35:33.410Z,21.30
2018-08-03T04:38:01.805Z,21.20
2018-08-03T04:40:30.257Z,21.20
2018-08-03T04:42:58.660Z,21.20
2018-08-03T04:45:27.104Z,21.20
2018-08-03T04:47:55.524Z,21.20
2018-08-03T04:50:23.927Z,21.20
2018-08-03T04:52:52.735Z,21.30
2018-08-03T04:55:21.168Z,21.20
2018-08-03T04:57:49.574Z,21.30
2018-08-03T05:00:17.961Z,21.30
2018-08-03T05:02:46.388Z,21.30
2018-08-03T05:05:14.835Z,21.30
2018-08-03T05:07:43.307Z,21.40
2018-08-03T05:10:11.788Z,21.40
2018-08-03T05:12:40.196Z,21.50
2018-08-03T05:15:09.058Z,21.50
2018-08-03T05:17:37.967Z,21.50
2018-08-03T05:20:07.140Z,21.60
2018-08-03T05:22:35.826Z,21.60
2018-08-03T05:25:04.578Z,21.70
2018-08-03T05:27:33.102Z,21.80
2018-08-03T05:30:01.922Z,21.80
2018-08-03T05:32:30.331Z,21.80
2018-08-03T05:34:58.855Z,21.90
2018-08-03T05:37:27.263Z,22.00
2018-08-03T05:39:56.383Z,22.00
2018-08-03T05:44:52.976Z,22.20
2018-08-03T05:47:22.274Z,22.30
2018-08-03T05:49:50.696Z,22.40
2018-08-03T05:52:19.140Z,22.50
2018-08-03T05:54:47.533Z,22.70
2018-08-03T05:57:15.919Z,22.90
2018-08-03T05:59:44.356Z,23.00
2018-08-03T06:02:12.831Z,23.30
2018-08-03T06:04:41.222Z,24.10
2018-08-03T06:07:09.710Z,25.30
2018-08-03T06:09:38.318Z,26.50
2018-08-03T06:12:06.785Z,27.40
2018-08-03T06:14:35.237Z,28.10
2018-08-03T06:17:03.733Z,28.70
2018-08-03T06:19:32.147Z,29.20
2018-08-03T06:22:00.604Z,29.00
2018-08-03T06:24:29.435Z,29.40
2018-08-03T06:26:57.848Z,29.70
2018-08-03T06:29:26.292Z,29.70
2018-08-03T06:31:54.718Z,29.90
2018-08-03T06:34:23.143Z,29.80
2018-08-03T06:36:51.590Z,29.90
2018-08-03T06:39:20.003Z,29.40
2018-08-03T06:41:48.429Z,29.30
2018-08-03T06:44:16.968Z,29.40
2018-08-03T06:46:45.423Z,28.80
2018-08-03T06:49:13.844Z,27.80
2018-08-03T06:51:42.268Z,27.20
2018-08-03T06:54:10.709Z,26.60
2018-08-03T06:56:39.120Z,26.40
2018-08-03T06:59:07.567Z,26.30
2018-08-03T07:01:36.017Z,26.40
2018-08-03T07:04:04.467Z,26.30
2018-08-03T07:06:32.877Z,26.10
2018-08-03T07:09:01.387Z,25.90
2018-08-03T07:11:29.819Z,26.00
2018-08-03T07:13:58.253Z,26.20
2018-08-03T07:16:26.673Z,26.30
2018-08-03T07:18:55.092Z,26.50
2018-08-03T07:21:26.432Z,26.40
2018-08-03T07:23:55.524Z,26.50
2018-08-03T07:26:23.969Z,26.50
2018-08-03T07:28:52.929Z,26.60
2018-08-03T07:31:21.379Z,26.70
2018-08-03T07:33:50.049Z,26.90
2018-08-03T07:36:18.535Z,27.00
2018-08-03T07:38:47.161Z,27.10
2018-08-03T07:41:15.752Z,27.00
2018-08-03T07:43:44.192Z,27.30
2018-08-03T07:46:12.624Z,27.20
2018-08-03T07:51:09.308Z,27.50
2018-08-03T07:53:38.788Z,27.60
2018-08-03T07:56:07.187Z,27.50
2018-08-03T07:58:35.620Z,27.40
2018-08-03T08:01:04.072Z,27.60
2018-08-03T08:03:32.481Z,27.40
2018-08-03T08:06:01.046Z,27.50
2018-08-03T08:08:29.490Z,27.60
2018-08-03T08:10:58.337Z,27.40
2018-08-03T08:13:26.809Z,27.70
2018-08-03T08:15:55.234Z,28.00
2018-08-03T08:18:23.679Z,28.20
2018-08-03T08:20:52.218Z,28.30
2018-08-03T08:23:20.713Z,28.30
2018-08-03T08:25:49.388Z,28.50
2018-08-03T08:28:17.819Z,28.50
2018-08-03T08:30:46.241Z,28.40
2018-08-03T08:33:14.663Z,28.40
2018-08-03T08:35:43.160Z,28.60
2018-08-03T08:38:11.627Z,28.50
2018-08-03T08:40:40.100Z,28.70
2018-08-03T08:43:08.654Z,28.90
2018-08-03T08:45:37.060Z,29.00
2018-08-03T08:48:05.656Z,28.90
2018-08-03T08:50:34.112Z,28.60
2018-08-03T08:53:02.557Z,28.80
2018-08-03T08:55:31.147Z,29.00
2018-08-03T08:57:59.559Z,29.00
2018-08-03T09:00:28.012Z,29.20
2018-08-03T09:02:56.468Z,28.90
2018-08-03T09:05:24.936Z,29.00
2018-08-03T09:07:53.472Z,29.30
2018-08-03T09:10:21.866Z,29.20
2018-08-03T09:12:50.401Z,29.30
2018-08-03T09:15:18.782Z,29.20
2018-08-03T09:17:47.329Z,29.00
2018-08-03T09:20:15.784Z,29.00
2018-08-03T09:22:44.209Z,28.90
2018-08-03T09:25:12.602Z,29.20
2018-08-03T09:27:41.055Z,29.20
2018-08-03T09:30:10.328Z,29.40
2018-08-03T09:32:38.953Z,29.20
2018-08-03T09:35:07.720Z,29.10
2018-08-03T09:37:36.181Z,29.30
2018-08-03T09:40:05.066Z,29.40
2018-08-03T09:42:33.547Z,29.40
2018-08-03T09:45:02.010Z,29.40
2018-08-03T09:47:30.513Z,29.60
2018-08-03T09:49:58.953Z,29.90
2018-08-03T09:52:27.332Z,29.70
2018-08-03T09:54:55.721Z,29.90
2018-08-03T09:57:24.112Z,30.20
2018-08-03T09:59:52.532Z,30.30
2018-08-03T10:02:21.049Z,30.30
2018-08-03T10:04:49.448Z,30.30
2018-08-03T10:07:17.987Z,30.40
2018-08-03T10:09:46.412Z,30.60
2018-08-03T10:12:14.820Z,30.60
2018-08-03T10:14:43.304Z,30.80
2018-08-03T10:17:11.766Z,30.90
2018-08-03T10:19:40.204Z,31.00
2018-08-03T10:22:08.609Z,30.80
2018-08-03T10:24:37.041Z,30.90
2018-08-03T10:27:05.509Z,30.90
2018-08-03T10:29:33.955Z,30.90
2018-08-03T10:32:02.387Z,31.20
2018-08-03T10:34:30.865Z,31.20
2018-08-03T10:36:59.401Z,31.20
2018-08-03T10:39:27.830Z,31.10
2018-08-03T10:41:56.320Z,31.30
2018-08-03T10:44:24.780Z,31.50
2018-08-03T10:46:53.208Z,31.60
2018-08-03T10:49:21.600Z,31.60
2018-08-03T10:54:18.196Z,31.50
2018-08-03T10:56:46.682Z,31.40
2018-08-03T10:59:15.145Z,31.60
2018-08-03T11:01:43.681Z,31.70
2018-08-03T11:04:12.524Z,31.80
2018-08-03T11:06:41.088Z,31.70
2018-08-03T11:09:10.299Z,31.60
2018-08-03T11:11:39.139Z,31.70
2018-08-03T11:14:07.564Z,31.80
2018-08-03T11:16:36.086Z,31.90
2018-08-03T11:19:04.584Z,32.10
2018-08-03T11:21:33.115Z,32.30
2018-08-03T11:24:01.617Z,32.60
2018-08-03T11:26:30.032Z,32.70
2018-08-03T11:28:58.472Z,32.60
2018-08-03T11:31:26.910Z,32.60
2018-08-03T11:33:56.171Z,32.70
2018-08-03T11:36:24.594Z,32.50
2018-08-03T11:38:52.992Z,32.50
2018-08-03T11:41:21.445Z,32.30
2018-08-03T11:46:18.020Z,32.60
2018-08-03T11:48:46.586Z,32.70
2018-08-03T11:51:14.984Z,32.90
2018-08-03T11:53:43.392Z,32.90
2018-08-03T11:56:11.802Z,32.50
2018-08-03T11:58:40.259Z,32.60
2018-08-03T12:01:08.737Z,32.70
2018-08-03T12:03:37.173Z,32.80
2018-08-03T12:06:05.760Z,32.60
2018-08-03T12:08:34.228Z,32.60
2018-08-03T12:11:02.636Z,32.50
2018-08-03T12:13:31.064Z,32.40
2018-08-03T12:15:59.528Z,32.40
2018-08-03T12:18:27.975Z,32.40
2018-08-03T12:20:56.382Z,32.50
2018-08-03T12:23:24.890Z,32.70
2018-08-03T12:25:53.289Z,32.70
2018-08-03T12:28:21.744Z,32.80
2018-08-03T12:30:50.196Z,32.80
2018-08-03T12:33:18.657Z,32.90
2018-08-03T12:35:47.062Z,32.80
2018-08-03T12:38:15.459Z,33.00
2018-08-03T12:40:44.040Z,33.10
2018-08-03T12:43:12.664Z,33.30
2018-08-03T12:45:41.060Z,33.30
2018-08-03T12:48:09.469Z,33.30
2018-08-03T12:50:38.203Z,33.30
2018-08-03T12:53:06.733Z,33.20
2018-08-03T12:55:35.221Z,33.30
2018-08-03T12:58:03.720Z,33.40
2018-08-03T13:00:32.231Z,33.40
2018-08-03T13:03:00.673Z,33.50
2018-08-03T13:05:29.311Z,33.50
2018-08-03T13:07:57.856Z,33.40
2018-08-03T13:10:26.187Z,33.20
2018-08-03T13:12:54.632Z,33.30
2018-08-03T13:15:23.093Z,33.20
2018-08-03T13:17:51.575Z,33.20
2018-08-03T13:20:20.034Z,33.20
2018-08-03T13:22:48.510Z,33.30
2018-08-03T13:25:17.644Z,33.50
2018-08-03T13:27:46.093Z,33.50
2018-08-03T13:30:14.583Z,33.30
2018-08-03T13:32:43.018Z,33.30
2018-08-03T13:37:39.616Z,33.30
2018-08-03T13:40:08.061Z,33.40
2018-08-03T13:42:36.505Z,33.50
2018-08-03T13:45:05.268Z,33.60
2018-08-03T13:47:33.856Z,33.80
2018-08-03T13:50:02.374Z,33.70
2018-08-03T13:52:30.827Z,33.60
2018-08-03T13:54:59.251Z,33.40
2018-08-03T13:57:27.693Z,33.60
2018-08-03T13:59:56.132Z,33.20
2018-08-03T14:02:26.822Z,33.20
2018-08-03T14:04:55.802Z,33.20
2018-08-03T14:07:25.619Z,33.30
2018-08-03T14:09:54.108Z,33.60
2018-08-03T14:12:22.560Z,33.70
2018-08-03T14:14:51.171Z,33.70
2018-08-03T14:17:19.657Z,33.80
2018-08-03T14:19:48.146Z,33.80
2018-08-03T14:22:16.654Z,33.80
2018-08-03T14:24:45.502Z,33.80
2018-08-03T14:27:13.974Z,33.90
2018-08-03T14:29:42.401Z,33.90
2018-08-03T14:32:10.895Z,33.90
2018-08-03T14:34:39.424Z,33.80
2018-08-03T14:37:07.937Z,33.50
2018-08-03T14:39:36.360Z,33.50
2018-08-03T14:42:04.872Z,33.50
2018-08-03T14:44:33.266Z,33.60
2018-08-03T14:47:01.731Z,33.70
2018-08-03T14:49:30.381Z,33.60
2018-08-03T14:51:58.994Z,33.50
2018-08-03T14:54:27.532Z,33.60
2018-08-03T14:56:55.991Z,33.60
2018-08-03T14:59:24.444Z,33.50
2018-08-03T15:01:52.906Z,33.60
2018-08-03T15:04:21.353Z,33.50
2018-08-03T15:06:49.793Z,33.50
2018-08-03T15:09:18.309Z,33.60
2018-08-03T15:11:46.744Z,33.60
2018-08-03T15:14:15.216Z,33.70
2018-08-03T15:16:43.646Z,33.80
2018-08-03T15:19:12.087Z,33.60
2018-08-03T15:21:40.556Z,33.50
2018-08-03T15:24:09.021Z,33.50
2018-08-03T15:26:37.577Z,33.60
2018-08-03T15:29:06.043Z,33.60
2018-08-03T15:31:34.633Z,33.70
2018-08-03T15:34:03.161Z,33.60
2018-08-03T15:36:31.556Z,33.70
2018-08-03T15:39:00.071Z,33.70
2018-08-03T15:41:29.366Z,33.80
2018-08-03T15:43:57.805Z,33.70
2018-08-03T15:46:26.193Z,33.90
2018-08-03T15:48:54.723Z,33.90
2018-08-03T15:51:23.223Z,33.90
2018-08-03T15:53:51.748Z,33.80
2018-08-03T15:56:20.180Z,33.80
2018-08-03T15:58:48.813Z,33.80
2018-08-03T16:01:17.209Z,33.80
2018-08-03T16:03:45.680Z,33.60
2018-08-03T16:06:14.141Z,33.50
2018-08-03T16:08:42.547Z,33.50
2018-08-03T16:11:10.972Z,33.40
2018-08-03T16:13:39.399Z,33.40
2018-08-03T16:16:07.821Z,33.60
2018-08-03T16:18:36.288Z,33.60
2018-08-03T16:21:04.879Z,33.60
2018-08-03T16:23:33.332Z,33.50
2018-08-03T16:26:01.880Z,33.50
2018-08-03T16:28:30.308Z,33.40
2018-08-03T16:30:58.742Z,33.40
2018-08-03T16:33:27.221Z,33.30
2018-08-03T16:35:55.836Z,33.30
2018-08-03T16:38:24.331Z,33.30
2018-08-03T16:40:52.776Z,33.30
2018-08-03T16:43:21.188Z,33.40
2018-08-03T16:45:49.622Z,33.40
2018-08-03T16:48:18.095Z,33.50
2018-08-03T16:50:46.540Z,33.50
2018-08-03T16:53:14.969Z,33.50
2018-08-03T16:55:43.451Z,33.40
2018-08-03T16:58:11.940Z,33.20
2018-08-03T17:00:40.409Z,33.20
2018-08-03T17:03:08.964Z,33.20
2018-08-03T17:05:37.421Z,33.20
2018-08-03T17:08:05.933Z,33.20
2018-08-03T17:10:34.477Z,33.20
2018-08-03T17:13:02.844Z,33.20
2018-08-03T17:15:31.287Z,33.10
2018-08-03T17:17:59.707Z,33.10
2018-08-03T17:20:28.187Z,33.00
2018-08-03T17:22:56.645Z,33.10
2018-08-03T17:25:25.098Z,33.10
2018-08-03T17:27:53.661Z,32.90
2018-08-03T17:30:22.130Z,32.90
2018-08-03T17:32:50.549Z,32.80
2018-08-03T17:37:47.228Z,32.90
2018-08-03T17:40:15.885Z,32.80
2018-08-03T17:42:44.322Z,32.80
2018-08-03T17:45:12.792Z,32.70
2018-08-03T17:47:41.236Z,32.70
2018-08-03T17:50:09.742Z,32.80
2018-08-03T17:52:38.188Z,32.80
2018-08-03T17:55:06.708Z,32.60
2018-08-03T17:57:35.215Z,32.50
2018-08-03T18:00:03.967Z,32.50
2018-08-03T18:02:32.368Z,32.40
2018-08-03T18:05:00.847Z,32.40
2018-08-03T18:07:29.413Z,32.20
2018-08-03T18:09:57.814Z,32.20
2018-08-03T18:12:26.361Z,32.10
2018-08-03T18:14:54.840Z,31.90
2018-08-03T18:19:51.464Z,31.80
2018-08-03T18:22:19.908Z,31.90
2018-08-03T18:24:48.387Z,31.80
2018-08-03T18:27:16.855Z,31.90
2018-08-03T18:29:45.298Z,31.90
2018-08-03T18:32:13.706Z,31.90
2018-08-03T18:34:42.187Z,31.90
2018-08-03T18:37:10.757Z,31.80
2018-08-03T18:39:39.188Z,31.70
2018-08-03T18:42:07.652Z,31.60
2018-08-03T18:44:36.092Z,31.60
2018-08-03T18:47:04.538Z,31.50
2018-08-03T18:49:33.033Z,31.50
2018-08-03T18:52:01.457Z,31.40
2018-08-03T18:54:30.235Z,31.40
2018-08-03T18:56:58.760Z,31.30
2018-08-03T18:59:27.217Z,31.30
2018-08-03T19:01:55.692Z,31.30
2018-08-03T19:04:24.142Z,31.10
2018-08-03T19:06:52.615Z,31.10
2018-08-03T19:09:21.132Z,31.00
2018-08-03T19:11:49.633Z,30.90
2018-08-03T19:14:18.048Z,30.90
2018-08-03T19:16:46.495Z,30.80
2018-08-03T19:19:15.037Z,30.80
2018-08-03T19:21:43.496Z,30.70
2018-08-03T19:24:11.907Z,30.60
2018-08-03T19:26:40.391Z,30.50
2018-08-03T19:29:08.824Z,30.40
2018-08-03T19:31:37.344Z,30.40
2018-08-03T19:34:07.109Z,30.40
2018-08-03T19:36:35.616Z,30.40
2018-08-03T19:39:06.222Z,30.30
2018-08-03T19:41:34.679Z,30.20
2018-08-03T19:44:03.330Z,30.20
2018-08-03T19:46:31.749Z,30.20
2018-08-03T19:49:00.184Z,30.10
2018-08-03T19:51:28.629Z,30.00
2018-08-03T19:53:57.096Z,30.00
2018-08-03T19:56:25.531Z,29.80
2018-08-03T19:58:54.434Z,29.80
2018-08-03T20:01:23.002Z,29.80
2018-08-03T20:03:51.501Z,29.70
2018-08-03T20:06:19.928Z,29.70
2018-08-03T20:08:48.582Z,29.60
2018-08-03T20:11:17.161Z,29.70
2018-08-03T20:13:45.642Z,29.60
2018-08-03T20:16:14.204Z,29.50
2018-08-03T20:18:42.776Z,29.50
2018-08-03T20:21:11.340Z,29.40
2018-08-03T20:23:39.867Z,29.50
2018-08-03T20:26:08.439Z,29.40
2018-08-03T20:28:36.919Z,29.40
2018-08-03T20:31:05.330Z,29.30
2018-08-03T20:33:33.780Z,29.30
2018-08-03T20:36:02.739Z,29.30
2018-08-03T20:38:31.363Z,29.20
2018-08-03T20:41:00.060Z,29.10
2018-08-03T20:43:28.480Z,29.00
2018-08-03T20:45:56.955Z,29.00
2018-08-03T20:48:25.440Z,29.00
2018-08-03T20:50:54.505Z,29.00
2018-08-03T20:53:22.961Z,28.90
2018-08-03T20:55:51.516Z,28.90
2018-08-03T20:58:20.149Z,28.90
2018-08-03T21:00:48.601Z,28.90
2018-08-03T21:03:17.089Z,28.80
2018-08-03T21:05:45.543Z,28.70
2018-08-03T21:08:13.976Z,28.70
2018-08-03T21:10:42.546Z,28.70
2018-08-03T21:13:11.059Z,28.70
2018-08-03T21:15:39.508Z,28.60
2018-08-03T21:18:08.088Z,28.60
2018-08-03T21:20:36.510Z,28.50
2018-08-03T21:23:04.960Z,28.50
2018-08-03T21:25:33.394Z,28.50
2018-08-03T21:28:01.854Z,28.50
2018-08-03T21:30:30.288Z,28.50
2018-08-03T21:32:58.743Z,28.50
2018-08-03T21:35:27.232Z,28.50
2018-08-03T21:37:55.741Z,28.50
2018-08-03T21:40:24.324Z,28.40
2018-08-03T21:42:52.781Z,28.30
2018-08-03T21:45:21.208Z,28.30
2018-08-03T21:47:49.862Z,28.30
2018-08-03T21:50:18.311Z,28.30
2018-08-03T21:52:46.778Z,28.30
2018-08-03T21:55:15.383Z,28.30
2018-08-03T21:57:43.804Z,28.30
2018-08-03T22:00:19.140Z,28.30
2018-08-03T22:02:47.648Z,28.30
2018-08-03T22:05:16.173Z,28.20
2018-08-03T22:07:44.677Z,28.10
2018-08-03T22:10:13.171Z,28.10
2018-08-03T22:12:41.760Z,27.90
2018-08-03T22:15:10.231Z,27.90
2018-08-03T22:17:38.635Z,27.90
2018-08-03T22:20:10.118Z,27.80
2018-08-03T22:22:38.927Z,27.70
2018-08-03T22:25:07.639Z,27.60
2018-08-03T22:27:36.043Z,27.60
2018-08-03T22:30:05.037Z,27.50
2018-08-03T22:35:01.756Z,27.50
2018-08-03T22:37:30.163Z,27.40
2018-08-03T22:39:58.696Z,27.40
2018-08-03T22:42:27.103Z,27.30
2018-08-03T22:44:55.482Z,27.20
2018-08-03T22:47:23.900Z,27.20
2018-08-03T22:49:52.407Z,27.00
2018-08-03T22:52:20.886Z,27.00
2018-08-03T22:54:49.319Z,27.00
2018-08-03T22:57:17.783Z,26.90
2018-08-03T22:59:46.207Z,26.90
2018-08-03T23:02:14.684Z,26.90
2018-08-03T23:04:43.082Z,26.90
2018-08-03T23:07:11.502Z,26.90
2018-08-03T23:09:39.941Z,26.90
2018-08-03T23:14:36.636Z,26.70
2018-08-03T23:17:05.028Z,26.60
2018-08-03T23:19:33.552Z,26.60
2018-08-03T23:22:02.273Z,26.50
2018-08-03T23:24:30.781Z,26.50
2018-08-03T23:26:59.217Z,26.40
2018-08-03T23:29:27.654Z,26.40
2018-08-03T23:31:56.417Z,26.40
2018-08-03T23:34:24.882Z,26.40
2018-08-03T23:36:53.313Z,26.30
2018-08-03T23:39:21.708Z,26.30
2018-08-03T23:41:50.120Z,26.30
2018-08-03T23:44:18.517Z,26.40
2018-08-03T23:46:46.968Z,26.50
2018-08-03T23:49:15.403Z,26.60
2018-08-03T23:51:43.816Z,26.60
2018-08-03T23:54:12.266Z,26.60
2018-08-03T23:56:40.694Z,26.60
2018-08-03T23:59:09.089Z,26.50
